sensor_id;sensor_type;location;lat;lon;timestamp;temperature;humidity
21312;DHT22;18076;52.154;10.570;2024-02-21T00:01:21;8.20;99.90
21312;DHT22;18076;52.154;10.570;2024-02-21T00:03:47;8.20;99.90
21312;DHT22;18076;52.154;10.570;2024-02-21T00:06:12;8.20;99.90
21312;DHT22;18076;52.154;10.570;2024-02-21T00:08:38;8.20;99.90
21312;DHT22;18076;52.154;10.570;2024-02-21T00:11:03;8.20;99.90
21312;DHT22;18076;52.154;10.570;2024-02-21T00:13:29;8.10;99.90
21312;DHT22;18076;52.154;10.570;2024-02-21T00:15:55;8.20;99.90
21312;DHT22;18076;52.154;10.570;2024-02-21T00:18:20;8.20;99.90
21312;DHT22;18076;52.154;10.570;2024-02-21T00:20:46;8.20;99.90
21312;DHT22;18076;52.154;10.570;2024-02-21T00:23:11;8.20;99.90
21312;DHT22;18076;52.154;10.570;2024-02-21T00:25:37;8.20;99.90
21312;DHT22;18076;52.154;10.570;2024-02-21T00:28:02;8.20;99.90
21312;DHT22;18076;52.154;10.570;2024-02-21T00:30:28;8.20;99.90
21312;DHT22;18076;52.154;10.570;2024-02-21T00:32:54;8.20;99.90
21312;DHT22;18076;52.154;10.570;2024-02-21T00:35:19;8.30;99.90
21312;DHT22;18076;52.154;10.570;2024-02-21T00:37:45;8.30;99.90
21312;DHT22;18076;52.154;10.570;2024-02-21T00:40:10;8.30;99.90
21312;DHT22;18076;52.154;10.570;2024-02-21T00:42:36;8.30;99.90
21312;DHT22;18076;52.154;10.570;2024-02-21T00:45:01;8.30;99.90
21312;DHT22;18076;52.154;10.570;2024-02-21T00:47:27;8.30;99.90
21312;DHT22;18076;52.154;10.570;2024-02-21T00:49:52;8.30;99.90
21312;DHT22;18076;52.154;10.570;2024-02-21T00:52:18;8.30;99.90
21312;DHT22;18076;52.154;10.570;2024-02-21T00:54:43;8.20;99.90
21312;DHT22;18076;52.154;10.570;2024-02-21T00:57:09;8.30;99.90
21312;DHT22;18076;52.154;10.570;2024-02-21T00:59:34;8.30;99.90
21312;DHT22;18076;52.154;10.570;2024-02-21T01:02:00;8.30;99.90
21312;DHT22;18076;52.154;10.570;2024-02-21T01:04:25;8.30;99.90
21312;DHT22;18076;52.154;10.570;2024-02-21T01:06:51;8.30;99.90
21312;DHT22;18076;52.154;10.570;2024-02-21T01:09:16;8.30;99.90
21312;DHT22;18076;52.154;10.570;2024-02-21T01:11:42;8.30;99.90
21312;DHT22;18076;52.154;10.570;2024-02-21T01:14:07;8.30;99.90
21312;DHT22;18076;52.154;10.570;2024-02-21T01:16:33;8.30;99.90
21312;DHT22;18076;52.154;10.570;2024-02-21T01:18:58;8.30;99.90
21312;DHT22;18076;52.154;10.570;2024-02-21T01:21:24;8.20;99.90
21312;DHT22;18076;52.154;10.570;2024-02-21T01:23:49;8.30;99.90
21312;DHT22;18076;52.154;10.570;2024-02-21T01:26:15;8.30;99.90
21312;DHT22;18076;52.154;10.570;2024-02-21T01:28:41;8.30;99.90
21312;DHT22;18076;52.154;10.570;2024-02-21T01:31:06;8.30;99.90
21312;DHT22;18076;52.154;10.570;2024-02-21T01:33:32;8.30;99.90
21312;DHT22;18076;52.154;10.570;2024-02-21T01:36:03;8.40;99.90
21312;DHT22;18076;52.154;10.570;2024-02-21T01:38:29;8.40;99.90
21312;DHT22;18076;52.154;10.570;2024-02-21T01:40:55;8.40;99.90
21312;DHT22;18076;52.154;10.570;2024-02-21T01:43:20;8.40;99.90
21312;DHT22;18076;52.154;10.570;2024-02-21T01:45:47;8.40;99.90
21312;DHT22;18076;52.154;10.570;2024-02-21T01:48:13;8.40;99.90
21312;DHT22;18076;52.154;10.570;2024-02-21T01:50:39;8.40;99.90
21312;DHT22;18076;52.154;10.570;2024-02-21T01:53:04;8.40;99.90
21312;DHT22;18076;52.154;10.570;2024-02-21T01:55:30;8.40;99.90
21312;DHT22;18076;52.154;10.570;2024-02-21T01:57:56;8.40;99.90
21312;DHT22;18076;52.154;10.570;2024-02-21T02:00:21;8.50;99.90
21312;DHT22;18076;52.154;10.570;2024-02-21T02:02:47;8.50;99.90
21312;DHT22;18076;52.154;10.570;2024-02-21T02:05:13;8.50;99.90
21312;DHT22;18076;52.154;10.570;2024-02-21T02:07:38;8.50;99.90
21312;DHT22;18076;52.154;10.570;2024-02-21T02:10:04;8.50;99.90
21312;DHT22;18076;52.154;10.570;2024-02-21T02:12:29;8.50;99.90
21312;DHT22;18076;52.154;10.570;2024-02-21T02:15:02;8.50;99.90
21312;DHT22;18076;52.154;10.570;2024-02-21T02:17:30;8.50;99.90
21312;DHT22;18076;52.154;10.570;2024-02-21T02:19:56;8.50;99.90
21312;DHT22;18076;52.154;10.570;2024-02-21T02:22:22;8.50;99.90
21312;DHT22;18076;52.154;10.570;2024-02-21T02:24:49;8.50;99.90
21312;DHT22;18076;52.154;10.570;2024-02-21T02:27:15;8.50;99.90
21312;DHT22;18076;52.154;10.570;2024-02-21T02:29:40;8.50;99.90
21312;DHT22;18076;52.154;10.570;2024-02-21T02:32:06;8.50;99.90
21312;DHT22;18076;52.154;10.570;2024-02-21T02:34:32;8.50;99.90
21312;DHT22;18076;52.154;10.570;2024-02-21T02:36:57;8.50;99.90
21312;DHT22;18076;52.154;10.570;2024-02-21T02:39:23;8.50;99.90
21312;DHT22;18076;52.154;10.570;2024-02-21T02:41:48;8.50;99.90
21312;DHT22;18076;52.154;10.570;2024-02-21T02:44:14;8.50;99.90
21312;DHT22;18076;52.154;10.570;2024-02-21T02:46:42;8.50;99.90
21312;DHT22;18076;52.154;10.570;2024-02-21T02:49:08;8.50;99.90
21312;DHT22;18076;52.154;10.570;2024-02-21T02:51:34;8.50;99.90
21312;DHT22;18076;52.154;10.570;2024-02-21T02:53:59;8.50;99.90
21312;DHT22;18076;52.154;10.570;2024-02-21T02:56:25;8.60;99.90
21312;DHT22;18076;52.154;10.570;2024-02-21T02:58:50;8.60;99.90
21312;DHT22;18076;52.154;10.570;2024-02-21T03:01:16;8.50;99.90
21312;DHT22;18076;52.154;10.570;2024-02-21T03:03:41;8.60;99.90
21312;DHT22;18076;52.154;10.570;2024-02-21T03:06:07;8.60;99.90
21312;DHT22;18076;52.154;10.570;2024-02-21T03:08:33;8.60;99.90
21312;DHT22;18076;52.154;10.570;2024-02-21T03:10:59;8.60;99.90
21312;DHT22;18076;52.154;10.570;2024-02-21T03:13:25;8.60;99.90
21312;DHT22;18076;52.154;10.570;2024-02-21T03:15:51;8.60;99.90
21312;DHT22;18076;52.154;10.570;2024-02-21T03:18:16;8.60;99.90
21312;DHT22;18076;52.154;10.570;2024-02-21T03:20:42;8.60;99.90
21312;DHT22;18076;52.154;10.570;2024-02-21T03:23:07;8.60;99.90
21312;DHT22;18076;52.154;10.570;2024-02-21T03:25:33;8.60;99.90
21312;DHT22;18076;52.154;10.570;2024-02-21T03:27:58;8.60;99.90
21312;DHT22;18076;52.154;10.570;2024-02-21T03:30:24;8.60;99.90
21312;DHT22;18076;52.154;10.570;2024-02-21T03:32:49;8.60;99.90
21312;DHT22;18076;52.154;10.570;2024-02-21T03:35:15;8.60;99.90
21312;DHT22;18076;52.154;10.570;2024-02-21T03:37:40;8.60;99.90
21312;DHT22;18076;52.154;10.570;2024-02-21T03:40:07;8.60;99.90
21312;DHT22;18076;52.154;10.570;2024-02-21T03:42:32;8.60;99.90
21312;DHT22;18076;52.154;10.570;2024-02-21T03:44:58;8.60;99.90
21312;DHT22;18076;52.154;10.570;2024-02-21T03:47:23;8.60;99.90
21312;DHT22;18076;52.154;10.570;2024-02-21T03:49:49;8.60;99.90
21312;DHT22;18076;52.154;10.570;2024-02-21T03:52:15;8.60;99.90
21312;DHT22;18076;52.154;10.570;2024-02-21T03:54:40;8.60;99.90
21312;DHT22;18076;52.154;10.570;2024-02-21T03:57:06;8.60;99.90
21312;DHT22;18076;52.154;10.570;2024-02-21T03:59:31;8.60;99.90
21312;DHT22;18076;52.154;10.570;2024-02-21T04:01:57;8.60;99.90
21312;DHT22;18076;52.154;10.570;2024-02-21T04:04:22;8.50;99.90
21312;DHT22;18076;52.154;10.570;2024-02-21T04:06:48;8.60;99.90
21312;DHT22;18076;52.154;10.570;2024-02-21T04:09:14;8.60;99.90
21312;DHT22;18076;52.154;10.570;2024-02-21T04:11:39;8.50;99.90
21312;DHT22;18076;52.154;10.570;2024-02-21T04:14:05;8.50;99.90
21312;DHT22;18076;52.154;10.570;2024-02-21T04:16:30;8.40;99.90
21312;DHT22;18076;52.154;10.570;2024-02-21T04:18:56;8.30;99.90
21312;DHT22;18076;52.154;10.570;2024-02-21T04:21:21;8.30;99.90
21312;DHT22;18076;52.154;10.570;2024-02-21T04:23:47;8.30;99.90
21312;DHT22;18076;52.154;10.570;2024-02-21T04:26:12;8.30;99.90
21312;DHT22;18076;52.154;10.570;2024-02-21T04:28:38;8.20;99.90
21312;DHT22;18076;52.154;10.570;2024-02-21T04:31:03;8.30;99.90
21312;DHT22;18076;52.154;10.570;2024-02-21T04:33:29;8.20;99.90
21312;DHT22;18076;52.154;10.570;2024-02-21T04:35:54;8.10;99.90
21312;DHT22;18076;52.154;10.570;2024-02-21T04:38:20;8.00;99.90
21312;DHT22;18076;52.154;10.570;2024-02-21T04:40:46;7.90;99.90
21312;DHT22;18076;52.154;10.570;2024-02-21T04:43:11;7.90;99.90
21312;DHT22;18076;52.154;10.570;2024-02-21T04:45:37;7.90;99.90
21312;DHT22;18076;52.154;10.570;2024-02-21T04:48:02;7.90;99.90
21312;DHT22;18076;52.154;10.570;2024-02-21T04:50:28;8.00;99.90
21312;DHT22;18076;52.154;10.570;2024-02-21T04:52:53;8.10;99.90
21312;DHT22;18076;52.154;10.570;2024-02-21T04:55:19;8.00;99.90
21312;DHT22;18076;52.154;10.570;2024-02-21T04:57:45;8.00;99.90
21312;DHT22;18076;52.154;10.570;2024-02-21T05:00:10;8.10;99.90
21312;DHT22;18076;52.154;10.570;2024-02-21T05:02:36;8.10;99.90
21312;DHT22;18076;52.154;10.570;2024-02-21T05:05:01;8.10;99.90
21312;DHT22;18076;52.154;10.570;2024-02-21T05:07:27;8.20;99.90
21312;DHT22;18076;52.154;10.570;2024-02-21T05:09:53;8.20;99.90
21312;DHT22;18076;52.154;10.570;2024-02-21T05:12:19;8.20;99.90
21312;DHT22;18076;52.154;10.570;2024-02-21T05:14:45;8.20;99.90
21312;DHT22;18076;52.154;10.570;2024-02-21T05:17:11;8.30;99.90
21312;DHT22;18076;52.154;10.570;2024-02-21T05:19:36;8.40;99.90
21312;DHT22;18076;52.154;10.570;2024-02-21T05:22:02;8.30;99.90
21312;DHT22;18076;52.154;10.570;2024-02-21T05:24:27;8.40;99.90
21312;DHT22;18076;52.154;10.570;2024-02-21T05:26:53;8.40;99.90
21312;DHT22;18076;52.154;10.570;2024-02-21T05:29:19;8.40;99.90
21312;DHT22;18076;52.154;10.570;2024-02-21T05:34:16;8.40;99.90
21312;DHT22;18076;52.154;10.570;2024-02-21T05:36:41;8.40;99.90
21312;DHT22;18076;52.154;10.570;2024-02-21T05:39:07;8.40;99.90
21312;DHT22;18076;52.154;10.570;2024-02-21T05:41:33;8.40;99.90
21312;DHT22;18076;52.154;10.570;2024-02-21T05:43:58;8.40;99.90
21312;DHT22;18076;52.154;10.570;2024-02-21T05:46:24;8.50;99.90
21312;DHT22;18076;52.154;10.570;2024-02-21T05:48:49;8.50;99.90
21312;DHT22;18076;52.154;10.570;2024-02-21T05:51:15;8.40;99.90
21312;DHT22;18076;52.154;10.570;2024-02-21T05:53:41;8.50;99.90
21312;DHT22;18076;52.154;10.570;2024-02-21T05:56:13;8.50;99.90
21312;DHT22;18076;52.154;10.570;2024-02-21T05:58:38;8.40;99.90
21312;DHT22;18076;52.154;10.570;2024-02-21T06:01:04;8.50;99.90
21312;DHT22;18076;52.154;10.570;2024-02-21T06:03:30;8.50;99.90
21312;DHT22;18076;52.154;10.570;2024-02-21T06:05:55;8.50;99.90
21312;DHT22;18076;52.154;10.570;2024-02-21T06:08:21;8.50;99.90
21312;DHT22;18076;52.154;10.570;2024-02-21T06:10:47;8.50;99.90
21312;DHT22;18076;52.154;10.570;2024-02-21T06:13:14;8.50;99.90
21312;DHT22;18076;52.154;10.570;2024-02-21T06:15:39;8.60;99.90
21312;DHT22;18076;52.154;10.570;2024-02-21T06:18:05;8.50;99.90
21312;DHT22;18076;52.154;10.570;2024-02-21T06:20:30;8.60;99.90
21312;DHT22;18076;52.154;10.570;2024-02-21T06:22:56;8.50;99.90
21312;DHT22;18076;52.154;10.570;2024-02-21T06:25:21;8.50;99.90
21312;DHT22;18076;52.154;10.570;2024-02-21T06:27:47;8.60;99.90
21312;DHT22;18076;52.154;10.570;2024-02-21T06:30:12;8.50;99.90
21312;DHT22;18076;52.154;10.570;2024-02-21T06:32:38;8.60;99.90
21312;DHT22;18076;52.154;10.570;2024-02-21T06:35:04;8.60;99.90
21312;DHT22;18076;52.154;10.570;2024-02-21T06:37:29;8.60;99.90
21312;DHT22;18076;52.154;10.570;2024-02-21T06:39:55;8.60;99.90
21312;DHT22;18076;52.154;10.570;2024-02-21T06:42:21;8.60;99.90
21312;DHT22;18076;52.154;10.570;2024-02-21T06:44:47;8.50;99.90
21312;DHT22;18076;52.154;10.570;2024-02-21T06:47:12;8.60;99.90
21312;DHT22;18076;52.154;10.570;2024-02-21T06:49:38;8.60;99.90
21312;DHT22;18076;52.154;10.570;2024-02-21T06:52:06;8.60;99.90
21312;DHT22;18076;52.154;10.570;2024-02-21T06:54:31;8.60;99.90
21312;DHT22;18076;52.154;10.570;2024-02-21T06:56:57;8.60;99.90
21312;DHT22;18076;52.154;10.570;2024-02-21T06:59:23;8.60;99.90
21312;DHT22;18076;52.154;10.570;2024-02-21T07:01:48;8.60;99.90
21312;DHT22;18076;52.154;10.570;2024-02-21T07:04:14;8.60;99.90
21312;DHT22;18076;52.154;10.570;2024-02-21T07:06:40;8.60;99.90
21312;DHT22;18076;52.154;10.570;2024-02-21T07:09:05;8.70;99.90
21312;DHT22;18076;52.154;10.570;2024-02-21T07:11:31;8.70;99.90
21312;DHT22;18076;52.154;10.570;2024-02-21T07:13:56;8.70;99.90
21312;DHT22;18076;52.154;10.570;2024-02-21T07:16:22;8.70;99.90
21312;DHT22;18076;52.154;10.570;2024-02-21T07:18:47;8.70;99.90
21312;DHT22;18076;52.154;10.570;2024-02-21T07:21:13;8.70;99.90
21312;DHT22;18076;52.154;10.570;2024-02-21T07:23:42;8.70;99.90
21312;DHT22;18076;52.154;10.570;2024-02-21T07:26:07;8.80;99.90
21312;DHT22;18076;52.154;10.570;2024-02-21T07:28:33;8.70;99.90
21312;DHT22;18076;52.154;10.570;2024-02-21T07:30:59;8.70;99.90
21312;DHT22;18076;52.154;10.570;2024-02-21T07:33:24;8.80;99.90
21312;DHT22;18076;52.154;10.570;2024-02-21T07:35:50;8.70;99.90
21312;DHT22;18076;52.154;10.570;2024-02-21T07:38:16;8.80;99.90
21312;DHT22;18076;52.154;10.570;2024-02-21T07:40:44;8.90;99.90
21312;DHT22;18076;52.154;10.570;2024-02-21T07:43:10;8.90;99.90
21312;DHT22;18076;52.154;10.570;2024-02-21T07:45:35;8.90;99.90
21312;DHT22;18076;52.154;10.570;2024-02-21T07:48:01;8.90;99.90
21312;DHT22;18076;52.154;10.570;2024-02-21T07:50:27;8.90;99.90
21312;DHT22;18076;52.154;10.570;2024-02-21T07:52:53;9.00;99.90
21312;DHT22;18076;52.154;10.570;2024-02-21T07:55:18;9.00;99.90
21312;DHT22;18076;52.154;10.570;2024-02-21T07:57:44;9.00;99.90
21312;DHT22;18076;52.154;10.570;2024-02-21T08:00:09;9.00;99.90
21312;DHT22;18076;52.154;10.570;2024-02-21T08:02:40;9.10;99.90
21312;DHT22;18076;52.154;10.570;2024-02-21T08:05:08;9.10;99.90
21312;DHT22;18076;52.154;10.570;2024-02-21T08:07:33;9.20;99.90
21312;DHT22;18076;52.154;10.570;2024-02-21T08:09:59;9.20;99.90
21312;DHT22;18076;52.154;10.570;2024-02-21T08:12:24;9.30;99.90
21312;DHT22;18076;52.154;10.570;2024-02-21T08:14:50;9.30;99.90
21312;DHT22;18076;52.154;10.570;2024-02-21T08:17:15;9.30;99.90
21312;DHT22;18076;52.154;10.570;2024-02-21T08:19:41;9.40;99.90
21312;DHT22;18076;52.154;10.570;2024-02-21T08:22:06;9.30;99.90
21312;DHT22;18076;52.154;10.570;2024-02-21T08:24:32;9.40;99.90
21312;DHT22;18076;52.154;10.570;2024-02-21T08:26:57;9.40;99.90
21312;DHT22;18076;52.154;10.570;2024-02-21T08:29:23;9.30;99.90
21312;DHT22;18076;52.154;10.570;2024-02-21T08:31:48;9.40;99.90
21312;DHT22;18076;52.154;10.570;2024-02-21T08:34:14;9.40;99.90
21312;DHT22;18076;52.154;10.570;2024-02-21T08:36:40;9.30;99.90
21312;DHT22;18076;52.154;10.570;2024-02-21T08:39:05;9.40;99.90
21312;DHT22;18076;52.154;10.570;2024-02-21T08:41:31;9.30;99.90
21312;DHT22;18076;52.154;10.570;2024-02-21T08:43:57;9.40;99.90
21312;DHT22;18076;52.154;10.570;2024-02-21T08:46:23;9.40;99.90
21312;DHT22;18076;52.154;10.570;2024-02-21T08:48:52;9.40;99.90
21312;DHT22;18076;52.154;10.570;2024-02-21T08:51:17;9.50;99.90
21312;DHT22;18076;52.154;10.570;2024-02-21T08:53:46;9.60;99.90
21312;DHT22;18076;52.154;10.570;2024-02-21T08:56:12;9.50;99.90
21312;DHT22;18076;52.154;10.570;2024-02-21T08:58:38;9.60;99.90
21312;DHT22;18076;52.154;10.570;2024-02-21T09:01:05;9.60;99.90
21312;DHT22;18076;52.154;10.570;2024-02-21T09:03:31;9.60;99.90
21312;DHT22;18076;52.154;10.570;2024-02-21T09:05:57;9.70;99.90
21312;DHT22;18076;52.154;10.570;2024-02-21T09:08:23;9.70;99.90
21312;DHT22;18076;52.154;10.570;2024-02-21T09:10:49;9.80;99.90
21312;DHT22;18076;52.154;10.570;2024-02-21T09:13:15;9.80;99.90
21312;DHT22;18076;52.154;10.570;2024-02-21T09:15:40;9.80;99.90
21312;DHT22;18076;52.154;10.570;2024-02-21T09:18:06;9.80;99.90
21312;DHT22;18076;52.154;10.570;2024-02-21T09:20:31;9.90;99.90
21312;DHT22;18076;52.154;10.570;2024-02-21T09:22:57;9.90;99.90
21312;DHT22;18076;52.154;10.570;2024-02-21T09:25:22;10.00;99.90
21312;DHT22;18076;52.154;10.570;2024-02-21T09:27:48;10.10;99.90
21312;DHT22;18076;52.154;10.570;2024-02-21T09:30:13;10.30;99.90
21312;DHT22;18076;52.154;10.570;2024-02-21T09:32:39;10.60;99.90
21312;DHT22;18076;52.154;10.570;2024-02-21T09:35:05;10.70;99.90
21312;DHT22;18076;52.154;10.570;2024-02-21T09:37:31;11.20;99.90
21312;DHT22;18076;52.154;10.570;2024-02-21T09:39:57;11.20;99.90
21312;DHT22;18076;52.154;10.570;2024-02-21T09:42:22;10.90;99.90
21312;DHT22;18076;52.154;10.570;2024-02-21T09:44:50;10.70;99.90
21312;DHT22;18076;52.154;10.570;2024-02-21T09:47:17;10.50;99.90
21312;DHT22;18076;52.154;10.570;2024-02-21T09:49:44;10.30;99.90
21312;DHT22;18076;52.154;10.570;2024-02-21T09:52:10;10.20;99.90
21312;DHT22;18076;52.154;10.570;2024-02-21T09:54:39;10.10;99.90
21312;DHT22;18076;52.154;10.570;2024-02-21T09:57:05;10.00;99.90
21312;DHT22;18076;52.154;10.570;2024-02-21T09:59:32;10.00;99.90
21312;DHT22;18076;52.154;10.570;2024-02-21T10:01:57;9.90;99.90
21312;DHT22;18076;52.154;10.570;2024-02-21T10:04:25;10.00;99.90
21312;DHT22;18076;52.154;10.570;2024-02-21T10:06:51;10.00;99.90
21312;DHT22;18076;52.154;10.570;2024-02-21T10:09:26;10.10;99.90
21312;DHT22;18076;52.154;10.570;2024-02-21T10:11:53;10.10;99.90
21312;DHT22;18076;52.154;10.570;2024-02-21T10:14:19;10.10;99.90
21312;DHT22;18076;52.154;10.570;2024-02-21T10:16:48;10.10;99.90
21312;DHT22;18076;52.154;10.570;2024-02-21T10:19:18;10.20;99.90
21312;DHT22;18076;52.154;10.570;2024-02-21T10:21:43;10.20;99.90
21312;DHT22;18076;52.154;10.570;2024-02-21T10:24:11;10.20;99.90
21312;DHT22;18076;52.154;10.570;2024-02-21T10:26:37;10.20;99.90
21312;DHT22;18076;52.154;10.570;2024-02-21T10:29:03;10.20;99.90
21312;DHT22;18076;52.154;10.570;2024-02-21T10:31:29;10.20;99.90
21312;DHT22;18076;52.154;10.570;2024-02-21T10:33:59;10.20;99.90
21312;DHT22;18076;52.154;10.570;2024-02-21T10:36:25;10.40;99.90
21312;DHT22;18076;52.154;10.570;2024-02-21T10:38:54;10.50;99.90
21312;DHT22;18076;52.154;10.570;2024-02-21T10:41:20;10.50;99.90
21312;DHT22;18076;52.154;10.570;2024-02-21T10:43:48;10.50;99.90
21312;DHT22;18076;52.154;10.570;2024-02-21T10:46:14;10.60;99.90
21312;DHT22;18076;52.154;10.570;2024-02-21T10:48:44;10.70;99.90
21312;DHT22;18076;52.154;10.570;2024-02-21T10:51:14;10.80;99.90
21312;DHT22;18076;52.154;10.570;2024-02-21T10:58:46;10.80;99.90
21312;DHT22;18076;52.154;10.570;2024-02-21T11:01:13;10.80;99.90
21312;DHT22;18076;52.154;10.570;2024-02-21T11:03:43;10.80;99.90
21312;DHT22;18076;52.154;10.570;2024-02-21T11:06:12;10.80;99.90
21312;DHT22;18076;52.154;10.570;2024-02-21T11:08:38;10.90;99.90
21312;DHT22;18076;52.154;10.570;2024-02-21T11:11:04;11.00;99.90
21312;DHT22;18076;52.154;10.570;2024-02-21T11:13:36;11.00;99.90
21312;DHT22;18076;52.154;10.570;2024-02-21T11:16:09;11.00;99.90
21312;DHT22;18076;52.154;10.570;2024-02-21T11:18:35;11.50;99.90
21312;DHT22;18076;52.154;10.570;2024-02-21T11:21:00;11.70;99.90
21312;DHT22;18076;52.154;10.570;2024-02-21T11:23:26;11.70;99.90
21312;DHT22;18076;52.154;10.570;2024-02-21T11:25:52;11.40;99.90
21312;DHT22;18076;52.154;10.570;2024-02-21T11:28:25;11.30;99.90
21312;DHT22;18076;52.154;10.570;2024-02-21T11:30:50;11.70;99.90
21312;DHT22;18076;52.154;10.570;2024-02-21T11:33:16;12.00;99.90
21312;DHT22;18076;52.154;10.570;2024-02-21T11:35:42;12.50;99.90
21312;DHT22;18076;52.154;10.570;2024-02-21T11:38:11;12.70;99.90
21312;DHT22;18076;52.154;10.570;2024-02-21T11:40:40;12.80;99.90
21312;DHT22;18076;52.154;10.570;2024-02-21T11:43:06;13.10;99.90
21312;DHT22;18076;52.154;10.570;2024-02-21T11:45:32;12.80;99.90
21312;DHT22;18076;52.154;10.570;2024-02-21T11:47:59;12.80;99.90
21312;DHT22;18076;52.154;10.570;2024-02-21T11:50:26;12.60;99.90
21312;DHT22;18076;52.154;10.570;2024-02-21T11:52:54;12.30;99.90
21312;DHT22;18076;52.154;10.570;2024-02-21T11:55:19;11.80;99.90
21312;DHT22;18076;52.154;10.570;2024-02-21T11:57:45;11.60;99.90
21312;DHT22;18076;52.154;10.570;2024-02-21T12:02:40;11.80;99.90
21312;DHT22;18076;52.154;10.570;2024-02-21T12:05:06;12.10;99.90
21312;DHT22;18076;52.154;10.570;2024-02-21T12:07:32;12.60;99.90
21312;DHT22;18076;52.154;10.570;2024-02-21T12:10:00;12.70;99.90
21312;DHT22;18076;52.154;10.570;2024-02-21T12:12:26;12.70;99.90
21312;DHT22;18076;52.154;10.570;2024-02-21T12:14:56;12.50;99.90
21312;DHT22;18076;52.154;10.570;2024-02-21T12:17:23;12.30;99.90
21312;DHT22;18076;52.154;10.570;2024-02-21T12:19:50;12.00;99.90
21312;DHT22;18076;52.154;10.570;2024-02-21T12:22:18;11.60;99.90
21312;DHT22;18076;52.154;10.570;2024-02-21T12:24:44;11.50;99.90
21312;DHT22;18076;52.154;10.570;2024-02-21T12:27:13;11.50;99.90
21312;DHT22;18076;52.154;10.570;2024-02-21T12:29:39;11.40;99.90
21312;DHT22;18076;52.154;10.570;2024-02-21T12:32:04;11.50;99.90
21312;DHT22;18076;52.154;10.570;2024-02-21T12:34:30;11.60;99.90
21312;DHT22;18076;52.154;10.570;2024-02-21T12:36:58;11.60;99.90
21312;DHT22;18076;52.154;10.570;2024-02-21T12:39:24;11.70;99.90
21312;DHT22;18076;52.154;10.570;2024-02-21T12:41:49;11.60;99.90
21312;DHT22;18076;52.154;10.570;2024-02-21T12:44:15;11.50;99.90
21312;DHT22;18076;52.154;10.570;2024-02-21T12:46:42;11.40;99.90
21312;DHT22;18076;52.154;10.570;2024-02-21T12:49:08;11.40;99.90
21312;DHT22;18076;52.154;10.570;2024-02-21T12:51:34;11.30;99.90
21312;DHT22;18076;52.154;10.570;2024-02-21T12:53:59;11.30;99.90
21312;DHT22;18076;52.154;10.570;2024-02-21T12:56:25;11.40;99.90
21312;DHT22;18076;52.154;10.570;2024-02-21T12:58:55;11.40;99.90
21312;DHT22;18076;52.154;10.570;2024-02-21T13:01:21;11.30;99.90
21312;DHT22;18076;52.154;10.570;2024-02-21T13:03:47;11.40;99.90
21312;DHT22;18076;52.154;10.570;2024-02-21T13:06:12;11.60;99.90
21312;DHT22;18076;52.154;10.570;2024-02-21T13:08:38;11.60;99.90
21312;DHT22;18076;52.154;10.570;2024-02-21T13:11:04;11.70;99.90
21312;DHT22;18076;52.154;10.570;2024-02-21T13:13:30;11.50;99.90
21312;DHT22;18076;52.154;10.570;2024-02-21T13:15:56;11.40;99.90
21312;DHT22;18076;52.154;10.570;2024-02-21T13:18:22;11.40;99.90
21312;DHT22;18076;52.154;10.570;2024-02-21T13:20:48;11.40;99.90
21312;DHT22;18076;52.154;10.570;2024-02-21T13:23:13;11.40;99.90
21312;DHT22;18076;52.154;10.570;2024-02-21T13:25:39;11.40;99.90
21312;DHT22;18076;52.154;10.570;2024-02-21T13:28:04;11.50;99.90
21312;DHT22;18076;52.154;10.570;2024-02-21T13:30:30;11.60;99.90
21312;DHT22;18076;52.154;10.570;2024-02-21T13:32:56;11.60;99.90
21312;DHT22;18076;52.154;10.570;2024-02-21T13:35:21;11.60;99.90
21312;DHT22;18076;52.154;10.570;2024-02-21T13:37:47;11.60;99.90
21312;DHT22;18076;52.154;10.570;2024-02-21T13:40:12;11.60;99.90
21312;DHT22;18076;52.154;10.570;2024-02-21T13:42:39;11.60;99.90
21312;DHT22;18076;52.154;10.570;2024-02-21T13:45:05;11.70;99.90
21312;DHT22;18076;52.154;10.570;2024-02-21T13:47:31;11.80;99.90
21312;DHT22;18076;52.154;10.570;2024-02-21T13:49:57;11.80;99.90
21312;DHT22;18076;52.154;10.570;2024-02-21T13:52:23;11.70;99.90
21312;DHT22;18076;52.154;10.570;2024-02-21T13:54:51;11.60;99.90
21312;DHT22;18076;52.154;10.570;2024-02-21T13:57:17;11.50;99.90
21312;DHT22;18076;52.154;10.570;2024-02-21T13:59:46;11.40;99.90
21312;DHT22;18076;52.154;10.570;2024-02-21T14:02:11;11.40;99.90
21312;DHT22;18076;52.154;10.570;2024-02-21T14:04:38;11.40;99.90
21312;DHT22;18076;52.154;10.570;2024-02-21T14:07:05;11.30;99.90
21312;DHT22;18076;52.154;10.570;2024-02-21T14:09:30;11.20;99.90
21312;DHT22;18076;52.154;10.570;2024-02-21T14:11:57;11.20;99.90
21312;DHT22;18076;52.154;10.570;2024-02-21T14:14:25;11.20;99.90
21312;DHT22;18076;52.154;10.570;2024-02-21T14:16:51;11.20;99.90
21312;DHT22;18076;52.154;10.570;2024-02-21T14:19:19;11.20;99.90
21312;DHT22;18076;52.154;10.570;2024-02-21T14:21:46;11.20;99.90
21312;DHT22;18076;52.154;10.570;2024-02-21T14:24:12;11.20;99.90
21312;DHT22;18076;52.154;10.570;2024-02-21T14:26:37;11.20;99.90
21312;DHT22;18076;52.154;10.570;2024-02-21T14:29:03;11.10;99.90
21312;DHT22;18076;52.154;10.570;2024-02-21T14:31:31;11.10;99.90
21312;DHT22;18076;52.154;10.570;2024-02-21T14:33:56;11.10;99.90
21312;DHT22;18076;52.154;10.570;2024-02-21T14:36:22;11.10;99.90
21312;DHT22;18076;52.154;10.570;2024-02-21T14:38:49;11.10;99.90
21312;DHT22;18076;52.154;10.570;2024-02-21T14:41:14;11.10;99.90
21312;DHT22;18076;52.154;10.570;2024-02-21T14:43:40;11.00;99.90
21312;DHT22;18076;52.154;10.570;2024-02-21T14:46:06;10.90;99.90
21312;DHT22;18076;52.154;10.570;2024-02-21T14:48:31;10.90;99.90
21312;DHT22;18076;52.154;10.570;2024-02-21T14:50:58;10.90;99.90
21312;DHT22;18076;52.154;10.570;2024-02-21T14:53:23;10.90;99.90
21312;DHT22;18076;52.154;10.570;2024-02-21T14:55:49;10.90;99.90
21312;DHT22;18076;52.154;10.570;2024-02-21T14:58:15;10.90;99.90
21312;DHT22;18076;52.154;10.570;2024-02-21T15:00:43;10.80;99.90
21312;DHT22;18076;52.154;10.570;2024-02-21T15:03:09;10.70;99.90
21312;DHT22;18076;52.154;10.570;2024-02-21T15:05:35;10.70;99.90
21312;DHT22;18076;52.154;10.570;2024-02-21T15:08:01;10.80;99.90
21312;DHT22;18076;52.154;10.570;2024-02-21T15:10:27;10.80;99.90
21312;DHT22;18076;52.154;10.570;2024-02-21T15:12:52;10.90;99.90
21312;DHT22;18076;52.154;10.570;2024-02-21T15:15:18;10.70;99.90
21312;DHT22;18076;52.154;10.570;2024-02-21T15:17:44;10.70;99.90
21312;DHT22;18076;52.154;10.570;2024-02-21T15:20:09;10.80;99.90
21312;DHT22;18076;52.154;10.570;2024-02-21T15:22:36;10.70;99.90
21312;DHT22;18076;52.154;10.570;2024-02-21T15:25:01;10.60;99.90
21312;DHT22;18076;52.154;10.570;2024-02-21T15:27:29;10.60;99.90